Terminal Aerodrome Forecast
Issued by NWS

Home | Current Version | Previous Version | Text Only | Print | Product List | Glossary On
Versions: 1 2 3 4 5 6 7 8 9 10 11 12
718
FTUS44 KBMX 260520
TAFANB
TAF
KANB 260520Z 2606/2706 10002KT P6SM SCT250
     FM261100 08003KT 5SM BR FEW250
     FM261400 19006KT P6SM FEW250=

USA.gov is the U.S. government's official web portal to all federal, state and local government web resources and services.